Inegol, Turkey
Current Conditions -  °F | °C
As of 7:20 AM on Saturday 25 Oct 2014 (Local Time) from LTBR Reporting Station
Broken Clouds Broken Clouds  
Wind Chill: 61°   Ceiling: 2700
Heat Index: 61°   Visibility: 6mi
Dew Point: 54°   Wind: 9mph
Humidity: 77%   Direction: 70°ENE
Pressure: 29.8"   Gusts: NA
Location:  40.08°N, 29.51°E
Report Text: LTBR 250420Z 07008KT 9999 BKN027 BKN090 16/12 Q1009 NOSIG
Loading
Personal Weather Stations






























Interactive Weather Map
Tropical Storm Tracking
New forecast layout! Learn more

10-Day Weather Forecast

Advertisements
Track Severe Weather on mobile